Time;durP1;ratioP1;P1;durP2;ratioP2;P2;SDS_P1;SDS_P2;PMS_P1;PMS_P2;Temp;Humidity;BMP_temperature;BMP_pressure;BME280_temperature;BME280_humidity;BME280_pressure;Samples;Min_cycle;Max_cycle;Signal;HPM_P1;HPM_P2
2021/09/28 00:01:59;;;;;;;6.03;1.83;;;13.40;99.90;;;;;;8394660;28;20052;-73
2021/09/28 00:06:01;;;;;;;11.40;2.00;;;13.40;99.90;;;;;;8391995;28;20072;-73
2021/09/28 00:10:04;;;;;;;8.20;1.90;;;13.50;99.90;;;;;;8391310;28;20487;-73
2021/09/28 00:14:06;;;;;;;6.90;1.98;;;13.40;99.90;;;;;;8394387;28;20075;-74
2021/09/28 00:18:07;;;;;;;4.25;1.58;;;13.50;99.90;;;;;;8375057;28;20049;-74
2021/09/28 00:22:09;;;;;;;6.18;1.45;;;13.40;99.90;;;;;;8392169;28;20044;-73
2021/09/28 00:26:11;;;;;;;5.68;1.67;;;13.40;99.90;;;;;;8390333;28;20442;-73
2021/09/28 00:30:13;;;;;;;5.78;1.85;;;13.40;99.90;;;;;;8388556;28;20049;-74
2021/09/28 00:34:15;;;;;;;8.50;2.28;;;13.30;99.90;;;;;;8390448;28;20056;-74
2021/09/28 00:38:16;;;;;;;6.78;2.33;;;13.30;99.90;;;;;;8392000;28;20044;-73
2021/09/28 00:42:18;;;;;;;;;;;13.20;99.90;;;;;;8390247;28;20052;-73
2021/09/28 00:46:23;;;;;;;;;;;13.20;99.90;;;;;;8390204;28;20379;-73
2021/09/28 00:50:26;;;;;;;;;;;13.20;99.90;;;;;;8384851;28;19928;-73
2021/09/28 00:54:27;;;;;;;;;;;13.20;99.90;;;;;;8391169;28;19924;-73
2021/09/28 00:58:29;;;;;;;;;;;13.10;99.90;;;;;;8387778;28;19932;-73
2021/09/28 01:02:31;;;;;;;;;;;13.10;99.90;;;;;;8390657;28;19925;-73
2021/09/28 01:06:32;;;;;;;;;;;13.10;99.90;;;;;;8392219;28;19935;-73
2021/09/28 01:10:35;;;;;;;;;;;13.10;99.90;;;;;;8396160;28;20406;-73
2021/09/28 01:14:37;;;;;;;;;;;13.10;99.90;;;;;;8375851;28;19931;-73
2021/09/28 01:18:40;;;;;;;;;;;13.10;99.90;;;;;;8392743;28;19920;-73
2021/09/28 01:22:42;;;;;;;;;;;13.00;99.90;;;;;;8384410;28;19935;-73
2021/09/28 01:26:44;;;;;;;;;;;13.00;99.90;;;;;;8387247;28;19920;-73
2021/09/28 01:30:46;;;;;;;;;;;13.00;99.90;;;;;;8391760;28;20361;-73
2021/09/28 01:34:47;;;;;;;;;;;12.90;99.90;;;;;;8387516;28;19928;-73
2021/09/28 01:38:49;;;;;;;;;;;12.80;99.90;;;;;;8386648;28;20280;-73
2021/09/28 01:42:51;;;;;;;;;;;12.70;99.90;;;;;;8397819;28;19924;-74
2021/09/28 01:46:52;;;;;;;;;;;12.70;99.90;;;;;;8388238;28;20386;-73
2021/09/28 01:50:54;;;;;;;;;;;12.60;99.90;;;;;;8388810;28;19997;-73
2021/09/28 01:54:55;;;;;;;;;;;12.60;99.90;;;;;;8384219;28;19928;-73
2021/09/28 01:58:58;;;;;;;;;;;12.50;99.90;;;;;;8388761;28;25128;-73
2021/09/28 02:03:00;;;;;;;;;;;12.50;99.90;;;;;;8383949;28;19928;-73
2021/09/28 02:07:02;;;;;;;;;;;12.50;99.90;;;;;;8406079;28;19920;-73
2021/09/28 02:11:04;;;;;;;;;;;12.40;99.90;;;;;;8390740;28;19927;-74
2021/09/28 02:15:05;;;;;;;;;;;12.50;99.90;;;;;;8388904;28;19963;-73
2021/09/28 02:19:07;;;;;;;;;;;12.40;99.90;;;;;;8389601;28;20276;-73
2021/09/28 02:23:09;;;;;;;;;;;12.40;99.90;;;;;;8375644;28;19921;-73
2021/09/28 02:27:11;;;;;;;;;;;12.40;99.90;;;;;;8381003;28;19939;-74
2021/09/28 02:31:12;;;;;;;;;;;12.40;99.90;;;;;;8387679;28;19920;-73
2021/09/28 02:35:14;;;;;;;;;;;12.40;99.90;;;;;;8386148;28;19920;-73
2021/09/28 02:39:16;;;;;;;;;;;12.30;99.90;;;;;;8387835;28;19920;-73
2021/09/28 02:43:17;;;;;;;;;;;12.30;99.90;;;;;;8386998;28;20367;-73
2021/09/28 02:47:19;;;;;;;;;;;12.30;99.90;;;;;;8410510;28;20581;-73
2021/09/28 02:51:21;;;;;;;;;;;12.30;99.90;;;;;;8373064;28;19931;-73
2021/09/28 02:55:22;;;;;;;;;;;12.30;99.90;;;;;;8389826;28;19927;-73
2021/09/28 02:59:24;;;;;;;;;;;12.20;99.90;;;;;;8385432;28;19928;-74
2021/09/28 03:03:26;;;;;;;;;;;12.10;99.90;;;;;;8383087;28;19997;-73
2021/09/28 03:07:27;;;;;;;;;;;12.10;99.90;;;;;;8393460;28;19939;-73
2021/09/28 03:11:29;;;;;;;;;;;12.10;99.90;;;;;;8393211;28;20208;-75
2021/09/28 03:15:31;;;;;;;;;;;12.00;99.90;;;;;;8395197;28;19932;-73
2021/09/28 03:19:32;;;;;;;;;;;12.10;99.90;;;;;;8394095;28;19928;-73
2021/09/28 03:23:34;;;;;;;;;;;12.00;99.90;;;;;;8385050;28;19936;-73
2021/09/28 03:27:36;;;;;;;;;;;12.10;99.90;;;;;;8389162;28;19943;-73
2021/09/28 03:31:37;;;;;;;;;;;12.10;99.90;;;;;;8389719;28;19929;-73
2021/09/28 03:35:39;;;;;;;;;;;12.10;99.90;;;;;;8394663;28;19942;-73
2021/09/28 03:39:41;;;;;;;;;;;12.10;99.90;;;;;;8394195;28;19925;-74
2021/09/28 03:43:42;;;;;;;;;;;12.10;99.90;;;;;;8413238;28;20380;-73
2021/09/28 03:47:44;;;;;;;;;;;12.10;99.90;;;;;;8391858;28;19924;-73
2021/09/28 03:51:46;;;;;;;;;;;12.10;99.90;;;;;;8393606;28;19929;-73
2021/09/28 03:55:47;;;;;;;;;;;12.10;99.90;;;;;;8385197;28;19932;-73
2021/09/28 03:59:49;;;;;;;;;;;12.10;99.90;;;;;;8391158;28;20299;-73
2021/09/28 04:03:51;;;;;;;;;;;12.10;99.90;;;;;;8383144;28;19933;-73
2021/09/28 04:07:52;;;;;;;;;;;12.10;99.90;;;;;;8393182;28;19920;-73
2021/09/28 04:11:54;;;;;;;;;;;12.00;99.90;;;;;;8392133;28;20027;-73
2021/09/28 04:15:56;;;;;;;;;;;12.00;99.90;;;;;;8392920;28;19920;-73
2021/09/28 04:19:58;;;;;;;;;;;12.00;99.90;;;;;;8386459;28;19967;-73
2021/09/28 04:24:00;;;;;;;;;;;12.00;99.90;;;;;;8391487;28;19924;-73
2021/09/28 04:28:02;;;;;;;;;;;12.00;99.90;;;;;;8391660;28;19921;-73
2021/09/28 04:32:04;;;;;;;;;;;12.00;99.90;;;;;;8391152;28;19927;-74
2021/09/28 04:36:05;;;;;;;;;;;12.00;99.90;;;;;;8394859;28;19928;-73
2021/09/28 04:40:07;;;;;;;;;;;11.90;99.90;;;;;;8393773;28;19924;-73
2021/09/28 04:44:09;;;;;;;;;;;11.90;99.90;;;;;;8407810;28;19924;-73
2021/09/28 04:48:10;;;;;;;;;;;11.90;99.90;;;;;;8393737;28;19920;-73
2021/09/28 04:52:12;;;;;;;;;;;11.90;99.90;;;;;;8390601;28;20307;-73
2021/09/28 04:56:14;;;;;;;;;;;11.90;99.90;;;;;;8375561;28;20391;-74
2021/09/28 05:00:15;;;;;;;;;;;11.90;99.90;;;;;;8370558;28;19920;-73
2021/09/28 05:04:17;;;;;;;;;;;11.90;99.90;;;;;;8385473;28;20020;-73
2021/09/28 05:08:19;;;;;;;;;;;11.80;99.90;;;;;;8389403;28;19928;-73
2021/09/28 05:12:20;;;;;;;;;;;11.80;99.90;;;;;;8405598;28;19921;-73
2021/09/28 05:16:22;;;;;;;;;;;11.80;99.90;;;;;;8389759;28;20374;-73
2021/09/28 05:20:24;;;;;;;;;;;11.80;99.90;;;;;;8382997;28;20252;-73
2021/09/28 05:24:26;;;;;;;;;;;11.70;99.90;;;;;;8368004;28;19920;-73
2021/09/28 05:28:27;;;;;;;;;;;11.70;99.90;;;;;;8387075;28;20529;-73
2021/09/28 05:32:30;;;;;;;;;;;11.70;99.90;;;;;;8385992;28;19964;-73
2021/09/28 05:36:32;;;;;;;;;;;11.60;99.90;;;;;;8393334;28;19927;-73
2021/09/28 05:40:33;;;;;;;;;;;11.60;99.90;;;;;;8385559;28;20015;-73
2021/09/28 05:44:35;;;;;;;;;;;11.60;99.90;;;;;;8382461;28;19921;-73
2021/09/28 05:48:37;;;;;;;;;;;11.60;99.90;;;;;;8386683;28;19927;-73
2021/09/28 05:52:43;;;;;;;;;;;11.60;99.90;;;;;;8372343;28;19932;-73
2021/09/28 05:56:49;;;;;;;;;;;11.60;99.90;;;;;;8388749;28;19924;-73
2021/09/28 06:00:50;;;;;;;;;;;11.70;99.90;;;;;;8390377;28;19920;-73
2021/09/28 06:04:52;;;;;;;;;;;11.70;99.90;;;;;;8372942;28;20285;-73
2021/09/28 06:08:55;;;;;;;;;;;11.70;99.90;;;;;;8387845;28;19949;-73
2021/09/28 06:12:56;;;;;;;;;;;11.70;99.90;;;;;;8386049;28;20037;-73
2021/09/28 06:16:58;;;;;;;;;;;11.70;99.90;;;;;;8387389;28;19970;-73
2021/09/28 06:21:00;;;;;;;;;;;11.80;99.90;;;;;;8377310;28;19921;-73
2021/09/28 06:25:02;;;;;;;;;;;11.80;99.90;;;;;;8380156;28;19989;-73
2021/09/28 06:29:04;;;;;;;;;;;11.80;99.90;;;;;;8383977;28;19982;-73
2021/09/28 06:33:05;;;;;;;;;;;11.90;99.90;;;;;;8385043;28;19978;-73
2021/09/28 06:37:08;;;;;;;;;;;11.80;99.90;;;;;;8402837;28;19943;-72
2021/09/28 06:41:10;;;;;;;;;;;11.80;99.90;;;;;;8384126;28;19924;-73
2021/09/28 06:45:11;;;;;;;;;;;11.90;99.90;;;;;;8385914;28;20409;-73
2021/09/28 06:49:13;;;;;;;;;;;11.90;99.90;;;;;;8385277;28;20402;-73
2021/09/28 06:53:15;;;;;;;;;;;11.90;99.90;;;;;;8388917;28;20445;-73
2021/09/28 06:57:17;;;;;;;;;;;12.00;99.90;;;;;;8390336;28;19920;-73
2021/09/28 07:01:19;;;;;;;;;;;12.00;99.90;;;;;;8387479;28;20391;-72
2021/09/28 07:05:21;;;;;;;;;;;12.00;99.90;;;;;;8389543;28;19924;-73
2021/09/28 07:09:23;;;;;;;;;;;12.10;99.90;;;;;;8387393;28;19928;-72
2021/09/28 07:13:25;;;;;;;;;;;12.20;99.90;;;;;;8398959;28;19928;-73
2021/09/28 07:17:26;;;;;;;;;;;12.20;99.90;;;;;;8406678;28;19928;-72
2021/09/28 07:21:28;;;;;;;;;;;12.30;99.90;;;;;;8365902;28;20031;-72
2021/09/28 07:25:30;;;;;;;;;;;12.40;99.90;;;;;;8354056;28;20300;-72
2021/09/28 07:29:31;;;;;;;;;;;12.50;99.90;;;;;;8354903;28;19982;-73
2021/09/28 07:33:34;;;;;;;;;;;12.70;99.90;;;;;;8366960;28;19927;-73
2021/09/28 07:37:44;;;;;;;;;;;12.70;99.90;;;;;;8354022;28;19932;-72
2021/09/28 07:41:46;;;;;;;;;;;12.80;99.90;;;;;;8351754;28;20297;-72
2021/09/28 07:45:48;;;;;;;;;;;12.90;99.90;;;;;;8352188;28;19925;-72
2021/09/28 07:49:50;;;;;;;;;;;13.00;99.90;;;;;;8357327;28;20347;-73
2021/09/28 07:53:52;;;;;;;8.80;2.75;;;13.10;99.90;;;;;;8372128;28;20441;-73
2021/09/28 07:57:54;;;;;;;;;;;13.10;99.90;;;;;;8359871;28;20064;-72
2021/09/28 08:01:56;;;;;;;;;;;13.20;99.90;;;;;;8359806;28;19988;-72
2021/09/28 08:05:57;;;;;;;;;;;13.30;99.90;;;;;;8357360;28;19947;-71
2021/09/28 08:09:59;;;;;;;;;;;13.40;99.90;;;;;;8358623;28;20368;-72
2021/09/28 08:14:01;;;;;;;;;;;13.50;99.90;;;;;;8356175;28;20251;-73
2021/09/28 08:18:03;;;;;;;;;;;13.60;99.90;;;;;;8362664;28;22432;-72
2021/09/28 08:22:09;;;;;;;;;;;13.60;99.90;;;;;;8355506;28;19929;-72
2021/09/28 08:30:27;;;;;;;7.80;2.65;;;13.90;99.90;;;;;;8358069;28;19994;-73
2021/09/28 08:34:29;;;;;;;8.98;2.90;;;14.00;99.90;;;;;;8356441;28;20041;-73
2021/09/28 08:38:31;;;;;;;9.80;2.58;;;14.10;99.90;;;;;;8362223;28;20152;-73
2021/09/28 08:42:33;;;;;;;8.48;2.85;;;14.20;99.90;;;;;;8355392;28;20090;-73
2021/09/28 08:46:35;;;;;;;7.28;2.63;;;14.30;99.90;;;;;;8356966;28;20045;-73
2021/09/28 08:50:38;;;;;;;12.40;3.20;;;14.40;99.90;;;;;;8355780;28;20433;-73
2021/09/28 08:54:40;;;;;;;8.77;2.65;;;14.50;99.90;;;;;;8358519;28;20057;-73
2021/09/28 08:58:57;;;;;;;13.38;3.45;;;14.60;99.90;;;;;;8352305;28;20048;-73
2021/09/28 09:02:59;;;;;;;9.10;2.15;;;14.60;99.90;;;;;;8356329;28;20064;-73
2021/09/28 09:07:24;;;;;;;14.80;3.20;;;14.70;99.90;;;;;;8354132;28;20481;-73
2021/09/28 09:11:25;;;;;;;7.07;2.60;;;14.90;99.90;;;;;;8354243;28;20190;-73
2021/09/28 09:15:31;;;;;;;9.43;2.80;;;15.00;99.90;;;;;;8357495;28;21077;-73
2021/09/28 09:19:33;;;;;;;8.20;2.40;;;15.10;99.90;;;;;;8354319;28;20080;-73
2021/09/28 09:23:38;;;;;;;10.43;2.80;;;15.20;99.90;;;;;;8354006;28;20382;-73
2021/09/28 09:27:39;;;;;;;5.85;2.33;;;15.30;99.90;;;;;;8357237;28;20043;-73
2021/09/28 09:31:53;;;;;;;9.38;2.47;;;15.40;99.90;;;;;;8355078;28;20102;-73
2021/09/28 09:36:01;;;;;;;12.52;2.88;;;15.50;99.90;;;;;;8358889;28;20063;-73
2021/09/28 09:40:03;;;;;;;13.13;3.47;;;15.60;99.90;;;;;;8358334;28;20157;-73
2021/09/28 09:44:09;;;;;;;7.70;2.40;;;15.80;99.90;;;;;;8356118;28;20047;-73
2021/09/28 09:48:25;;;;;;;9.85;2.83;;;15.90;99.90;;;;;;8354567;28;20041;-73
2021/09/28 09:52:27;;;;;;;8.20;2.38;;;15.90;99.90;;;;;;8355374;28;20404;-73
2021/09/28 09:56:46;;;;;;;9.30;2.70;;;16.00;99.90;;;;;;8356770;28;20532;-73
2021/09/28 10:00:49;;;;;;;5.90;2.15;;;16.00;99.90;;;;;;8348756;28;20052;-73
2021/09/28 10:04:52;;;;;;;7.60;2.40;;;16.10;99.90;;;;;;8356181;28;20431;-73
2021/09/28 10:08:54;;;;;;;9.38;2.40;;;16.20;99.90;;;;;;8337849;28;19931;-73
2021/09/28 10:12:58;;;;;;;9.60;2.53;;;16.30;99.90;;;;;;8352719;28;20487;-73
2021/09/28 10:17:01;;;;;;;11.40;2.20;;;16.40;99.90;;;;;;8337983;28;20052;-73
2021/09/28 10:21:39;;;;;;;11.20;2.20;;;16.50;99.90;;;;;;8350581;28;20237;-73
2021/09/28 10:25:44;;;;;;;9.27;2.10;;;16.70;99.90;;;;;;8335736;28;20581;-73
2021/09/28 10:29:50;;;;;;;7.90;2.13;;;16.80;99.90;;;;;;8336535;28;20408;-73
2021/09/28 10:33:53;;;;;;;8.30;2.22;;;16.90;99.90;;;;;;8334166;28;20098;-73
2021/09/28 10:38:01;;;;;;;5.90;1.90;;;17.00;99.90;;;;;;8355918;28;20056;-73
2021/09/28 10:42:02;;;;;;;;;;;17.00;99.90;;;;;;8354244;28;19967;-73
2021/09/28 10:46:04;;;;;;;;;;;17.00;99.90;;;;;;8353267;28;20276;-73
2021/09/28 10:50:21;;;;;;;;;;;17.00;99.90;;;;;;8355099;28;19928;-73
2021/09/28 10:54:23;;;;;;;;;;;17.20;99.90;;;;;;8352192;28;19928;-73
2021/09/28 10:58:26;;;;;;;;;;;17.30;99.90;;;;;;8354149;28;19983;-72
2021/09/28 11:02:47;;;;;;;;;;;17.40;99.90;;;;;;8354372;28;20296;-73
2021/09/28 11:06:51;;;;;;;;;;;17.60;99.90;;;;;;8361584;28;20250;-73
2021/09/28 11:10:56;;;;;;;;;;;17.60;99.90;;;;;;8372013;28;19925;-73
2021/09/28 11:14:59;;;;;;;;;;;17.70;99.90;;;;;;8353680;28;20364;-73
2021/09/28 11:19:00;;;;;;;;;;;17.80;99.90;;;;;;8352538;28;19947;-73
2021/09/28 11:23:10;;;;;;;;;;;17.80;99.90;;;;;;8350553;28;20288;-73
2021/09/28 11:27:12;;;;;;;;;;;17.80;99.90;;;;;;8357043;28;19928;-73
2021/09/28 11:31:13;;;;;;;;;;;17.80;99.90;;;;;;8356620;28;19925;-73
2021/09/28 11:35:15;;;;;;;;;;;17.80;99.90;;;;;;8360101;28;19931;-73
2021/09/28 11:39:17;;;;;;;;;;;17.80;99.90;;;;;;8361083;28;19928;-73
2021/09/28 11:43:27;;;;;;;;;;;17.70;99.90;;;;;;8358835;28;19920;-73
2021/09/28 11:47:29;;;;;;;;;;;17.70;99.90;;;;;;8343090;28;19928;-72
2021/09/28 11:51:36;;;;;;;;;;;17.70;99.90;;;;;;8357917;28;19929;-73
2021/09/28 11:55:38;;;;;;;;;;;17.70;99.90;;;;;;8356020;28;19932;-73
2021/09/28 11:59:40;;;;;;;;;;;17.60;99.90;;;;;;8354395;28;20573;-73
2021/09/28 12:04:03;;;;;;;;;;;17.60;99.90;;;;;;8356609;28;19924;-73
2021/09/28 12:08:18;;;;;;;;;;;17.60;99.90;;;;;;8341670;28;20390;-73
2021/09/28 12:12:22;;;;;;;;;;;17.60;99.90;;;;;;8359006;28;19921;-73
2021/09/28 12:16:23;;;;;;;;;;;17.70;99.90;;;;;;8373351;28;19925;-73
2021/09/28 12:20:28;;;;;;;;;;;17.80;99.90;;;;;;8371932;28;20331;-73
2021/09/28 12:24:40;;;;;;;;;;;17.90;99.90;;;;;;8356140;28;19921;-73
2021/09/28 12:28:42;;;;;;;;;;;17.90;99.90;;;;;;8339093;28;19931;-73
2021/09/28 12:32:47;;;;;;;;;;;17.90;99.90;;;;;;8355270;28;19924;-73
2021/09/28 12:36:49;;;;;;;;;;;18.00;99.90;;;;;;8358767;28;19925;-73
2021/09/28 12:40:50;;;;;;;;;;;18.10;99.90;;;;;;8355972;28;20315;-73
2021/09/28 12:44:57;;;;;;;;;;;18.10;99.90;;;;;;8358109;28;19925;-73
2021/09/28 12:48:59;;;;;;;;;;;18.20;99.90;;;;;;8357240;28;19983;-72
2021/09/28 12:53:03;;;;;;;;;;;18.30;99.90;;;;;;8355254;28;20402;-73
2021/09/28 12:57:05;;;;;;;;;;;18.40;99.90;;;;;;8359851;28;19967;-73
2021/09/28 13:01:07;;;;;;;;;;;18.50;99.90;;;;;;8370998;28;20004;-73
2021/09/28 13:05:11;;;;;;;;;;;18.60;99.90;;;;;;8372876;28;20015;-73
2021/09/28 13:09:13;;;;;;;;;;;18.60;99.90;;;;;;8356333;28;20020;-73
2021/09/28 13:13:16;;;;;;;;;;;18.70;99.90;;;;;;8353531;28;19924;-73
2021/09/28 13:17:18;;;;;;;;;;;18.70;99.90;;;;;;8357046;28;19966;-72
2021/09/28 13:21:19;;;;;;;;;;;18.70;99.90;;;;;;8353860;28;19921;-73
2021/09/28 13:25:21;;;;;;;;;;;18.70;99.90;;;;;;8357026;28;19933;-72
2021/09/28 13:29:23;;;;;;;;;;;18.80;99.90;;;;;;8371452;28;20334;-73
2021/09/28 13:33:24;;;;;;;;;;;18.90;99.90;;;;;;8354870;28;20268;-73
2021/09/28 13:37:30;;;;;;;;;;;18.80;99.90;;;;;;8356663;28;19931;-73
2021/09/28 13:41:32;;;;;;;;;;;18.70;99.90;;;;;;8356316;28;20317;-73
2021/09/28 13:45:37;;;;;;;;;;;18.60;99.90;;;;;;8356087;28;20007;-73
2021/09/28 13:49:39;;;;;;;;;;;18.60;99.90;;;;;;8369307;28;19921;-73
2021/09/28 13:53:43;;;;;;;;;;;18.50;99.90;;;;;;8356337;28;19928;-73
2021/09/28 13:57:45;;;;;;;;;;;18.40;99.90;;;;;;8354748;28;19925;-73
2021/09/28 14:01:50;;;;;;;;;;;18.40;99.90;;;;;;8353191;28;20006;-73
2021/09/28 14:05:52;;;;;;;;;;;18.50;99.90;;;;;;8351427;28;19925;-73
2021/09/28 14:09:53;;;;;;;;;;;18.50;99.90;;;;;;8356308;28;19921;-73
2021/09/28 14:13:55;;;;;;;;;;;18.60;99.90;;;;;;8337563;28;19928;-73
2021/09/28 14:17:57;;;;;;;;;;;18.80;99.90;;;;;;8355459;28;19924;-73
2021/09/28 14:21:58;;;;;;;;;;;18.90;99.90;;;;;;8353203;28;20372;-73
2021/09/28 14:26:01;;;;;;;;;;;18.90;99.90;;;;;;8355925;28;20328;-73
2021/09/28 14:30:03;;;;;;;;;;;19.00;99.90;;;;;;8369159;28;19924;-73
2021/09/28 14:34:05;;;;;;;;;;;19.00;99.90;;;;;;8367762;28;19947;-73
2021/09/28 14:38:06;;;;;;;;;;;19.00;99.90;;;;;;8352340;28;20344;-73
2021/09/28 14:42:08;;;;;;;;;;;19.00;99.90;;;;;;8352697;28;19948;-73
2021/09/28 14:46:10;;;;;;;;;;;19.00;99.90;;;;;;8352691;28;19983;-73
2021/09/28 14:50:12;;;;;;;;;;;19.00;99.90;;;;;;8368512;28;20007;-73
2021/09/28 14:54:14;;;;;;;;;;;19.00;99.90;;;;;;8353955;28;19924;-73
2021/09/28 14:58:15;;;;;;;;;;;19.00;99.90;;;;;;8355917;28;20371;-73
2021/09/28 15:02:17;;;;;;;;;;;19.00;99.90;;;;;;8358540;28;20234;-72
2021/09/28 15:06:24;;;;;;;;;;;18.80;99.90;;;;;;8376486;28;19936;-73
2021/09/28 15:10:27;;;;;;;;;;;18.70;99.90;;;;;;8359273;28;19920;-73
2021/09/28 15:14:28;;;;;;;;;;;18.60;99.90;;;;;;8360735;28;19923;-73
2021/09/28 15:18:30;;;;;;;;;;;18.60;99.90;;;;;;8360293;28;19939;-73
2021/09/28 15:22:32;;;;;;;;;;;18.70;99.90;;;;;;8372746;28;19925;-73
2021/09/28 15:26:36;;;;;;;;;;;18.70;99.90;;;;;;8340690;28;20430;-73
2021/09/28 15:30:38;;;;;;;;;;;18.80;99.90;;;;;;8359865;28;19955;-73
2021/09/28 15:34:39;;;;;;;;;;;18.80;99.90;;;;;;8365479;28;19986;-73
2021/09/28 15:38:42;;;;;;;;;;;18.80;99.90;;;;;;8362814;28;19925;-73
2021/09/28 15:42:44;;;;;;;;;;;18.70;99.90;;;;;;8344377;28;19933;-73
2021/09/28 15:46:46;;;;;;;;;;;18.70;99.90;;;;;;8362408;28;19982;-73
2021/09/28 15:50:48;;;;;;;;;;;18.70;99.90;;;;;;8362645;28;19927;-73
2021/09/28 15:54:49;;;;;;;;;;;18.70;99.90;;;;;;8355261;28;20367;-73
2021/09/28 15:58:51;;;;;;;;;;;18.70;99.90;;;;;;8365208;28;19935;-73
2021/09/28 16:02:53;;;;;;;;;;;18.70;99.90;;;;;;8363275;28;19937;-74
2021/09/28 16:06:54;;;;;;;;;;;18.70;99.90;;;;;;8365605;28;20329;-73
2021/09/28 16:10:57;;;;;;;;;;;18.70;99.90;;;;;;8380726;28;19924;-73
2021/09/28 16:14:58;;;;;;;;;;;18.70;99.90;;;;;;8362394;28;20380;-73
2021/09/28 16:19:00;;;;;;;;;;;18.70;99.90;;;;;;8356174;28;20002;-73
2021/09/28 16:23:02;;;;;;;;;;;18.70;99.90;;;;;;8343076;28;19924;-73
2021/09/28 16:27:03;;;;;;;5.03;1.30;;;18.70;99.90;;;;;;8372661;28;20300;-73
2021/09/28 16:31:05;;;;;;;5.50;1.52;;;18.70;99.90;;;;;;8356239;28;20148;-73
2021/09/28 16:35:11;;;;;;;6.25;1.35;;;18.60;99.90;;;;;;8356142;28;20052;-73
2021/09/28 16:39:13;;;;;;;6.05;1.30;;;18.60;99.90;;;;;;8360638;28;20102;-73
2021/09/28 16:43:15;;;;;;;5.95;1.23;;;18.50;99.90;;;;;;8355779;28;20056;-73
2021/09/28 16:47:17;;;;;;;5.10;1.20;;;18.40;99.90;;;;;;8340139;28;20041;-73
2021/09/28 16:51:20;;;;;;;4.95;1.10;;;18.40;99.90;;;;;;8353417;28;20477;-73
2021/09/28 16:55:21;;;;;;;5.20;1.23;;;18.30;99.90;;;;;;8364473;28;20102;-73
2021/09/28 16:59:23;;;;;;;6.97;1.75;;;18.20;99.90;;;;;;8367488;28;20056;-73
2021/09/28 17:03:25;;;;;;;4.90;1.45;;;18.10;99.90;;;;;;8353052;28;20354;-73
2021/09/28 17:07:27;;;;;;;5.53;1.10;;;18.00;99.90;;;;;;8356882;28;20065;-73
2021/09/28 17:11:29;;;;;;;6.15;1.50;;;18.00;99.90;;;;;;8344937;28;20481;-73
2021/09/28 17:15:31;;;;;;;4.60;1.20;;;17.90;99.90;;;;;;8359567;28;20052;-73
2021/09/28 17:19:32;;;;;;;;;;;17.80;99.90;;;;;;8348720;28;24149;-73
2021/09/28 17:23:34;;;;;;;;;;;17.80;99.90;;;;;;8351679;28;19929;-74
2021/09/28 17:27:36;;;;;;;;;;;17.70;99.90;;;;;;8356242;28;19932;-73
2021/09/28 17:31:56;;;;;;;;;;;17.70;99.90;;;;;;8358438;28;19978;-73
2021/09/28 17:35:58;;;;;;;;;;;17.60;99.90;;;;;;8345480;28;20347;-73
2021/09/28 17:40:00;;;;;;;;;;;17.50;99.90;;;;;;8355959;28;20010;-73
2021/09/28 17:44:01;;;;;;;;;;;17.40;99.90;;;;;;8356852;28;20032;-73
2021/09/28 17:48:03;;;;;;;;;;;17.30;99.90;;;;;;8353757;28;19920;-73
2021/09/28 17:52:05;;;;;;;;;;;17.20;99.90;;;;;;8354536;28;19957;-73
2021/09/28 17:56:16;;;;;;;;;;;17.10;99.90;;;;;;8352854;28;19943;-73
2021/09/28 18:00:18;;;;;;;;;;;17.10;99.90;;;;;;8353083;28;19920;-73
2021/09/28 18:04:20;;;;;;;;;;;17.00;99.90;;;;;;8353392;28;20342;-73
2021/09/28 18:08:21;;;;;;;;;;;17.00;99.90;;;;;;8354027;28;20401;-73
2021/09/28 18:12:28;;;;;;;;;;;17.00;99.90;;;;;;8375678;28;19956;-73
2021/09/28 18:16:30;;;;;;;;;;;16.90;99.90;;;;;;8348106;28;20449;-73
2021/09/28 18:20:32;;;;;;;;;;;16.80;99.90;;;;;;8358021;28;19928;-73
2021/09/28 18:24:34;;;;;;;;;;;16.70;99.90;;;;;;8353887;28;20017;-73
2021/09/28 18:28:35;;;;;;;;;;;16.70;99.90;;;;;;8367916;28;19982;-72
2021/09/28 18:32:38;;;;;;;;;;;16.60;99.90;;;;;;8380449;28;19925;-73
2021/09/28 18:36:40;;;;;;;;;;;16.50;99.90;;;;;;8362710;28;19947;-73
2021/09/28 18:44:46;;;;;;;;;;;16.40;99.90;;;;;;8358142;28;19921;-73
2021/09/28 18:48:48;;;;;;;;;;;16.30;99.90;;;;;;8361244;28;19920;-73
2021/09/28 18:52:50;;;;;;;;;;;16.30;99.90;;;;;;8367021;28;19924;-73
2021/09/28 19:01:01;;;;;;;;;;;16.20;99.90;;;;;;8356798;28;19931;-73
2021/09/28 19:05:30;;;;;;;;;;;16.10;99.90;;;;;;8353651;28;19927;-73
2021/09/28 19:09:32;;;;;;;;;;;16.00;99.90;;;;;;8358990;28;19928;-73
2021/09/28 19:13:37;;;;;;;;;;;16.00;99.90;;;;;;8360595;28;19971;-73
2021/09/28 19:17:38;;;;;;;;;;;15.90;99.90;;;;;;8360537;28;19928;-73
2021/09/28 19:21:48;;;;;;;;;;;15.90;99.90;;;;;;8364584;28;20053;-73
2021/09/28 19:25:49;;;;;;;;;;;15.90;99.90;;;;;;8366162;28;19921;-75
2021/09/28 19:29:54;;;;;;;;;;;15.80;99.90;;;;;;8358922;28;19924;-73
2021/09/28 19:33:56;;;;;;;;;;;15.80;99.90;;;;;;8365255;28;19920;-73
2021/09/28 19:37:58;;;;;;;5.90;1.90;;;15.70;99.90;;;;;;8373832;28;19958;-73
2021/09/28 19:42:03;;;;;;;12.32;2.05;;;15.70;99.90;;;;;;8361776;28;20194;-73
2021/09/28 19:46:16;;;;;;;6.05;2.22;;;15.70;99.90;;;;;;8364670;28;20052;-73
2021/09/28 19:50:19;;;;;;;7.20;2.10;;;15.60;99.90;;;;;;8369097;28;20128;-73
2021/09/28 19:54:28;;;;;;;6.72;2.05;;;15.60;99.90;;;;;;8367926;28;20052;-73
2021/09/28 19:59:19;;;;;;;;;;;15.50;99.90;;;;;;8373419;28;20128;-73
2021/09/28 20:37:14;;;;;;;;;;;15.10;99.90;;;;;;8369413;28;19925;-73
2021/09/28 20:41:16;;;;;;;;;;;15.00;99.90;;;;;;8370122;28;19931;-73
2021/09/28 20:45:18;;;;;;;;;;;15.10;99.90;;;;;;8367414;28;19921;-73
2021/09/28 20:49:19;;;;;;;;;;;15.00;99.90;;;;;;8367304;28;19925;-73
2021/09/28 20:53:22;;;;;;;;;;;15.00;99.90;;;;;;8369742;28;19921;-73
2021/09/28 20:57:24;;;;;;;;;;;15.00;99.90;;;;;;8369394;28;19927;-73
2021/09/28 21:01:25;;;;;;;;;;;15.00;99.90;;;;;;8372673;28;19920;-74
2021/09/28 21:05:27;;;;;;;;;;;15.00;99.90;;;;;;8390777;28;19924;-73
2021/09/28 21:09:29;;;;;;;;;;;15.00;99.90;;;;;;8405162;28;19920;-73
2021/09/28 21:13:33;;;;;;;;;;;15.00;99.90;;;;;;8393555;28;20352;-73
2021/09/28 21:17:34;;;;;;;;;;;15.00;99.90;;;;;;8378777;28;20004;-73
2021/09/28 21:21:36;;;;;;;;;;;15.00;99.90;;;;;;8362747;28;19925;-73
2021/09/28 21:25:38;;;;;;;;;;;15.00;99.90;;;;;;8377896;28;19927;-73
2021/09/28 21:29:39;;;;;;;;;;;15.00;99.90;;;;;;8392511;28;19920;-73
2021/09/28 21:33:47;;;;;;;;;;;15.00;99.90;;;;;;8391842;28;19921;-73
2021/09/28 21:37:49;;;;;;;;;;;15.00;99.90;;;;;;8389790;28;20275;-72
2021/09/28 21:41:51;;;;;;;;;;;15.00;99.90;;;;;;8391912;28;19921;-73
2021/09/28 21:45:53;;;;;;;;;;;15.00;99.90;;;;;;8388491;28;19920;-73
2021/09/28 21:49:54;;;;;;;;;;;15.00;99.90;;;;;;8387377;28;19924;-73
2021/09/28 21:53:56;;;;;;;;;;;15.00;99.90;;;;;;8390893;28;19927;-73
2021/09/28 21:57:57;;;;;;;;;;;15.00;99.90;;;;;;8392533;28;20888;-73
2021/09/28 22:01:59;;;;;;;;;;;15.00;99.90;;;;;;8385385;28;20364;-72
2021/09/28 22:06:01;;;;;;;;;;;15.00;99.90;;;;;;8404294;28;19927;-73
2021/09/28 22:10:03;;;;;;;;;;;14.90;99.90;;;;;;8383228;28;19921;-73
2021/09/28 22:14:06;;;;;;;;;;;14.90;99.90;;;;;;8406222;28;19924;-73
2021/09/28 22:18:08;;;;;;;;;;;14.90;99.90;;;;;;8377214;28;19928;-72
2021/09/28 22:22:09;;;;;;;;;;;14.90;99.90;;;;;;8380915;28;19929;-73
2021/09/28 22:26:11;;;;;;;;;;;14.90;99.90;;;;;;8390686;28;20042;-73
2021/09/28 22:30:13;;;;;;;;;;;14.90;99.90;;;;;;8383942;28;19921;-74
2021/09/28 22:34:15;;;;;;;;;;;14.90;99.90;;;;;;8390594;28;20268;-72
2021/09/28 22:38:16;;;;;;;;;;;15.00;99.90;;;;;;8391688;28;19920;-73
2021/09/28 22:42:18;;;;;;;;;;;15.00;99.90;;;;;;8388462;28;19920;-72
2021/09/28 22:46:21;;;;;;;;;;;15.00;99.90;;;;;;8385197;28;19939;-73
2021/09/28 22:50:23;;;;;;;;;;;14.90;99.90;;;;;;8383729;28;20230;-73
2021/09/28 22:54:25;;;;;;;;;;;15.00;99.90;;;;;;8389060;28;20284;-72
2021/09/28 22:58:29;;;;;;;;;;;14.90;99.90;;;;;;8389990;28;19927;-73
2021/09/28 23:02:32;;;;;;;;;;;14.90;99.90;;;;;;8386673;28;20280;-73
2021/09/28 23:06:34;;;;;;;;;;;14.90;99.90;;;;;;8388821;28;20000;-72
2021/09/28 23:10:35;;;;;;;;;;;14.80;99.90;;;;;;8391342;28;19931;-72
2021/09/28 23:14:37;;;;;;;;;;;14.80;99.90;;;;;;8390016;28;19924;-73
2021/09/28 23:18:38;;;;;;;;;;;14.80;99.90;;;;;;8387911;28;19931;-73
2021/09/28 23:22:40;;;;;;;;;;;14.80;99.90;;;;;;8385224;28;19959;-73
2021/09/28 23:26:42;;;;;;;;;;;14.80;99.90;;;;;;8392123;28;19921;-72
2021/09/28 23:30:43;;;;;;;;;;;14.70;99.90;;;;;;8400338;28;20331;-73
2021/09/28 23:34:45;;;;;;;;;;;14.70;99.90;;;;;;8397463;28;19924;-73
2021/09/28 23:38:48;;;;;;;;;;;14.70;99.90;;;;;;8393118;28;19927;-73
2021/09/28 23:42:49;;;;;;;;;;;14.60;99.90;;;;;;8394870;28;19928;-72
2021/09/28 23:46:51;;;;;;;;;;;14.60;99.90;;;;;;8395813;28;19920;-72
2021/09/28 23:50:53;;;;;;;;;;;14.60;99.90;;;;;;8392818;28;19920;-72